Gilbert, Louisiana
Current Conditions -  °F | °C
As of 2:15 PM on Monday 24 Nov 2014 (Local Time) from KHEZ Reporting Station
Clear Clear  
Wind Chill: 16°   Ceiling: Unl
Heat Index: 16°   Visibility: 10mi
Dew Point:   Wind: 13mph
Humidity: 36%   Direction: 320°NW
Pressure: 29.97"   Gusts: 17mph
Location:  32.05°N, 91.66°W
Report Text: KHEZ 242015Z AUTO 32011G15KT 10SM CLR 16/01 A2997 RMK AO1
Loading
Personal Weather Stations






























Interactive Weather Map New forecast layout! Learn more

10-Day Weather Forecast

Advertisements
Track Severe Weather on mobile